createdAt,value
2023-03-16T00:02:20.574Z,67.90
2023-03-16T00:04:48.855Z,67.90
2023-03-16T00:07:17.183Z,67.70
2023-03-16T00:09:45.528Z,67.60
2023-03-16T00:12:17.454Z,67.80
2023-03-16T00:14:46.515Z,67.90
2023-03-16T00:17:20.075Z,67.90
2023-03-16T00:19:49.065Z,68.00
2023-03-16T00:22:17.578Z,67.90
2023-03-16T00:24:45.822Z,68.00
2023-03-16T00:27:15.511Z,68.00
2023-03-16T00:29:47.275Z,68.20
2023-03-16T00:32:19.115Z,68.20
2023-03-16T00:34:48.191Z,68.50
2023-03-16T00:37:18.226Z,68.70
2023-03-16T00:39:47.744Z,69.00
2023-03-16T00:42:17.912Z,69.00
2023-03-16T00:44:46.309Z,68.90
2023-03-16T00:47:15.489Z,69.00
2023-03-16T00:49:45.772Z,69.40
2023-03-16T00:52:15.687Z,69.60
2023-03-16T00:54:44.787Z,69.70
2023-03-16T00:57:14.438Z,69.80
2023-03-16T00:59:43.216Z,69.70
2023-03-16T01:02:12.440Z,69.30
2023-03-16T01:04:41.413Z,69.00
2023-03-16T01:07:13.276Z,69.00
2023-03-16T01:09:42.167Z,69.40
2023-03-16T01:12:12.698Z,69.50
2023-03-16T01:14:40.977Z,69.80
2023-03-16T01:17:10.648Z,69.80
2023-03-16T01:19:39.586Z,70.00
2023-03-16T01:22:09.953Z,69.90
2023-03-16T01:24:40.676Z,69.50
2023-03-16T01:27:10.013Z,69.20
2023-03-16T01:29:38.537Z,69.10
2023-03-16T01:32:07.031Z,69.30
2023-03-16T01:34:36.296Z,69.50
2023-03-16T01:37:04.507Z,69.70
2023-03-16T01:39:32.671Z,69.80
2023-03-16T01:42:02.247Z,69.90
2023-03-16T01:44:35.057Z,69.80
2023-03-16T01:47:03.260Z,69.50
2023-03-16T01:49:34.267Z,69.30
2023-03-16T01:52:06.575Z,69.40
2023-03-16T01:54:38.074Z,69.70
2023-03-16T01:57:11.975Z,69.60
2023-03-16T01:59:44.123Z,69.60
2023-03-16T02:02:14.047Z,69.60
2023-03-16T02:04:47.946Z,69.60
2023-03-16T02:07:18.387Z,70.00
2023-03-16T02:09:49.713Z,70.00
2023-03-16T02:12:21.650Z,70.20
2023-03-16T02:14:51.919Z,70.10
2023-03-16T02:17:22.733Z,69.80
2023-03-16T02:20:08.950Z,69.50
2023-03-16T02:22:38.806Z,69.50
2023-03-16T02:25:07.982Z,69.50
2023-03-16T02:27:47.371Z,69.70
2023-03-16T02:30:19.184Z,70.30
2023-03-16T02:32:51.599Z,70.40
2023-03-16T02:35:20.555Z,70.50
2023-03-16T02:37:48.779Z,70.50
2023-03-16T02:40:23.962Z,70.60
2023-03-16T02:42:57.527Z,71.10
2023-03-16T02:45:30.049Z,71.10
2023-03-16T02:48:03.777Z,71.70
2023-03-16T02:50:31.995Z,70.80
2023-03-16T02:53:00.161Z,70.60
2023-03-16T02:55:28.347Z,70.60
2023-03-16T02:57:56.527Z,70.60
2023-03-16T03:00:26.424Z,70.70
2023-03-16T03:02:54.747Z,70.80
2023-03-16T03:05:22.944Z,70.90
2023-03-16T03:07:51.318Z,70.80
2023-03-16T03:10:19.902Z,70.60
2023-03-16T03:12:49.512Z,70.40
2023-03-16T03:15:19.535Z,70.40
2023-03-16T03:17:49.151Z,70.40
2023-03-16T03:20:18.315Z,70.50
2023-03-16T03:22:48.212Z,70.70
2023-03-16T03:25:18.556Z,70.90
2023-03-16T03:27:48.845Z,71.10
2023-03-16T03:30:19.157Z,71.40
2023-03-16T03:32:49.376Z,71.50
2023-03-16T03:35:17.882Z,71.30
2023-03-16T03:37:46.165Z,71.00
2023-03-16T03:40:17.219Z,70.80
2023-03-16T03:42:45.952Z,70.90
2023-03-16T03:45:15.609Z,70.80
2023-03-16T03:47:44.917Z,71.10
2023-03-16T03:50:15.044Z,71.30
2023-03-16T03:52:43.424Z,71.50
2023-03-16T03:55:13.155Z,71.50
2023-03-16T03:57:41.571Z,71.50
2023-03-16T04:00:11.489Z,71.00
2023-03-16T04:02:39.771Z,70.70
2023-03-16T04:05:08.812Z,70.60
2023-03-16T04:07:38.813Z,70.60
2023-03-16T04:10:08.567Z,70.80
2023-03-16T04:12:36.759Z,70.80
2023-03-16T04:15:05.538Z,70.90
2023-03-16T04:17:34.433Z,71.10
2023-03-16T04:20:10.727Z,71.10
2023-03-16T04:22:40.370Z,71.20
2023-03-16T04:25:11.385Z,71.20
2023-03-16T04:27:39.688Z,71.30
2023-03-16T04:30:11.264Z,71.50
2023-03-16T04:32:39.983Z,71.60
2023-03-16T04:35:08.891Z,71.50
2023-03-16T04:37:37.248Z,71.40
2023-03-16T04:40:15.381Z,71.20
2023-03-16T04:42:43.773Z,71.10
2023-03-16T04:45:12.826Z,70.90
2023-03-16T04:47:41.431Z,70.90
2023-03-16T04:50:10.986Z,70.90
2023-03-16T04:52:39.229Z,71.10
2023-03-16T04:55:09.500Z,71.10
2023-03-16T04:57:37.698Z,71.20
2023-03-16T05:00:11.757Z,71.20
2023-03-16T05:02:40.066Z,71.20
2023-03-16T05:05:08.855Z,71.10
2023-03-16T05:07:37.095Z,71.20
2023-03-16T05:10:05.949Z,71.10
2023-03-16T05:12:35.586Z,71.10
2023-03-16T05:15:03.823Z,70.90
2023-03-16T05:17:32.143Z,70.80
2023-03-16T05:20:00.336Z,70.60
2023-03-16T05:22:28.531Z,70.60
2023-03-16T05:24:56.711Z,70.90
2023-03-16T05:27:24.913Z,71.30
2023-03-16T05:29:54.763Z,71.30
2023-03-16T05:32:23.121Z,71.60
2023-03-16T05:34:53.146Z,71.70
2023-03-16T05:37:22.037Z,71.90
2023-03-16T05:39:50.197Z,72.10
2023-03-16T05:42:19.823Z,72.00
2023-03-16T05:44:48.317Z,71.70
2023-03-16T05:47:17.907Z,71.70
2023-03-16T05:49:46.110Z,71.70
2023-03-16T05:52:14.374Z,71.80
2023-03-16T05:54:43.029Z,71.90
2023-03-16T05:57:11.300Z,72.20
2023-03-16T05:59:39.460Z,72.40
2023-03-16T06:02:10.848Z,72.40
2023-03-16T06:04:40.445Z,72.60
2023-03-16T06:07:09.149Z,72.70
2023-03-16T06:09:37.571Z,73.00
2023-03-16T06:12:05.872Z,73.20
2023-03-16T06:14:34.224Z,73.50
2023-03-16T06:17:02.540Z,73.80
2023-03-16T06:19:31.750Z,73.90
2023-03-16T06:22:01.344Z,73.70
2023-03-16T06:24:29.565Z,73.60
2023-03-16T06:26:57.754Z,74.10
2023-03-16T06:29:26.004Z,73.60
2023-03-16T06:31:54.849Z,73.70
2023-03-16T06:34:23.416Z,73.40
2023-03-16T06:36:51.616Z,73.20
2023-03-16T06:39:21.428Z,73.10
2023-03-16T06:41:49.634Z,73.30
2023-03-16T06:44:17.850Z,73.50
2023-03-16T06:46:46.054Z,73.50
2023-03-16T06:49:14.353Z,73.80
2023-03-16T06:51:42.978Z,74.10
2023-03-16T06:54:11.804Z,74.10
2023-03-16T06:56:41.364Z,74.20
2023-03-16T06:59:09.735Z,74.30
2023-03-16T07:01:37.931Z,74.40
2023-03-16T07:04:06.158Z,74.70
2023-03-16T07:06:34.466Z,74.70
2023-03-16T07:09:03.873Z,74.90
2023-03-16T07:11:32.486Z,75.00
2023-03-16T07:14:02.701Z,75.20
2023-03-16T07:16:30.971Z,75.30
2023-03-16T07:18:59.459Z,75.10
2023-03-16T07:21:27.637Z,75.00
2023-03-16T07:23:56.677Z,74.80
2023-03-16T07:26:24.875Z,74.50
2023-03-16T07:28:53.098Z,74.50
2023-03-16T07:31:22.765Z,74.50
2023-03-16T07:33:50.991Z,74.20
2023-03-16T07:36:19.372Z,73.70
2023-03-16T07:38:47.588Z,73.30
2023-03-16T07:41:15.861Z,72.60
2023-03-16T07:43:44.445Z,72.00
2023-03-16T07:46:13.869Z,71.60
2023-03-16T07:48:44.655Z,71.10
2023-03-16T07:51:13.591Z,70.60
2023-03-16T07:53:42.263Z,70.20
2023-03-16T07:56:11.453Z,69.50
2023-03-16T07:58:39.943Z,69.10
2023-03-16T08:01:09.346Z,68.60
2023-03-16T08:03:37.619Z,68.10
2023-03-16T08:06:07.862Z,67.80
2023-03-16T08:08:36.080Z,67.00
2023-03-16T08:11:04.317Z,66.70
2023-03-16T08:13:32.619Z,66.50
2023-03-16T08:16:02.328Z,65.90
2023-03-16T08:18:31.037Z,65.40
2023-03-16T08:20:59.833Z,64.50
2023-03-16T08:23:30.997Z,64.00
2023-03-16T08:25:59.520Z,63.50
2023-03-16T08:28:27.854Z,63.00
2023-03-16T08:30:58.541Z,62.50
2023-03-16T08:33:27.910Z,62.00
2023-03-16T08:35:56.255Z,61.50
2023-03-16T08:38:25.276Z,61.30
2023-03-16T08:40:54.860Z,61.00
2023-03-16T08:43:23.997Z,60.70
2023-03-16T08:45:52.488Z,60.60
2023-03-16T08:48:21.006Z,60.50
2023-03-16T08:50:49.758Z,60.50
2023-03-16T08:53:18.848Z,60.60
2023-03-16T08:55:47.059Z,60.70
2023-03-16T08:58:16.657Z,61.10
2023-03-16T09:00:46.846Z,61.30
2023-03-16T09:03:15.682Z,61.80
2023-03-16T09:05:43.907Z,61.90
2023-03-16T09:08:12.742Z,61.90
2023-03-16T09:10:40.941Z,61.70
2023-03-16T09:13:09.760Z,61.60
2023-03-16T09:15:39.919Z,61.20
2023-03-16T09:18:08.292Z,60.50
2023-03-16T09:20:37.936Z,60.30
2023-03-16T09:23:06.566Z,59.90
2023-03-16T09:25:34.751Z,59.40
2023-03-16T09:28:02.957Z,58.90
2023-03-16T09:30:31.719Z,58.40
2023-03-16T09:33:01.588Z,58.10
2023-03-16T09:35:30.126Z,57.40
2023-03-16T09:38:06.567Z,57.10
2023-03-16T09:40:36.324Z,57.40
2023-03-16T09:43:22.037Z,56.70
2023-03-16T09:46:00.767Z,55.60
2023-03-16T09:48:34.242Z,55.10
2023-03-16T09:51:05.022Z,54.90
2023-03-16T09:53:35.621Z,55.30
2023-03-16T09:56:05.848Z,55.00
2023-03-16T09:58:34.213Z,54.70
2023-03-16T10:01:11.263Z,55.00
2023-03-16T10:04:09.860Z,54.10
2023-03-16T10:06:45.492Z,53.20
2023-03-16T10:09:26.562Z,53.40
2023-03-16T10:11:57.934Z,52.80
2023-03-16T10:14:32.978Z,52.80
2023-03-16T10:17:06.477Z,50.80
2023-03-16T10:19:42.121Z,50.30
2023-03-16T10:22:21.662Z,49.40
2023-03-16T10:25:03.538Z,49.30
2023-03-16T10:27:34.090Z,49.20
2023-03-16T10:30:07.262Z,49.00
2023-03-16T10:32:36.878Z,48.20
2023-03-16T10:35:15.969Z,48.20
2023-03-16T10:37:44.229Z,46.90
2023-03-16T10:40:13.586Z,47.10
2023-03-16T10:42:41.764Z,47.90
2023-03-16T10:45:25.394Z,47.60
2023-03-16T10:47:53.715Z,46.70
2023-03-16T10:50:28.045Z,47.30
2023-03-16T10:52:58.238Z,46.60
2023-03-16T10:55:32.564Z,47.00
2023-03-16T10:58:01.580Z,47.10
2023-03-16T11:00:31.793Z,48.90
2023-03-16T11:03:01.252Z,47.10
2023-03-16T11:05:33.407Z,47.10
2023-03-16T11:08:09.434Z,47.40
2023-03-16T11:10:49.299Z,48.20
2023-03-16T11:13:22.754Z,48.70
2023-03-16T11:15:57.435Z,49.00
2023-03-16T11:18:31.508Z,49.00
2023-03-16T11:21:07.489Z,48.20
2023-03-16T11:23:40.999Z,48.10
2023-03-16T11:26:17.646Z,48.10
2023-03-16T11:28:51.726Z,47.70
2023-03-16T11:31:28.195Z,47.60
2023-03-16T11:33:57.615Z,47.70
2023-03-16T11:36:37.695Z,48.30
2023-03-16T11:39:12.822Z,47.70
2023-03-16T11:41:53.497Z,47.50
2023-03-16T11:44:30.997Z,47.00
2023-03-16T11:47:07.388Z,47.00
2023-03-16T11:49:49.767Z,46.90
2023-03-16T11:52:31.582Z,47.30
2023-03-16T11:55:10.153Z,46.80
2023-03-16T11:57:51.784Z,47.30
2023-03-16T12:00:33.306Z,45.80
2023-03-16T12:03:31.116Z,45.20
2023-03-16T12:06:17.039Z,45.60
2023-03-16T12:09:06.518Z,45.50
2023-03-16T12:11:43.622Z,45.20
2023-03-16T12:14:19.414Z,44.60
2023-03-16T12:16:52.592Z,44.30
2023-03-16T12:19:25.539Z,44.50
2023-03-16T12:22:04.246Z,44.80
2023-03-16T12:24:42.531Z,44.80
2023-03-16T12:27:17.709Z,44.70
2023-03-16T12:30:00.294Z,45.10
2023-03-16T12:32:38.215Z,44.90
2023-03-16T12:35:19.215Z,44.90
2023-03-16T12:37:57.306Z,45.30
2023-03-16T12:40:39.639Z,45.30
2023-03-16T12:43:29.553Z,44.90
2023-03-16T12:46:04.703Z,45.00
2023-03-16T12:48:37.071Z,45.60
2023-03-16T12:51:06.668Z,45.80
2023-03-16T12:53:44.543Z,45.80
2023-03-16T12:56:18.848Z,45.60
2023-03-16T12:58:49.633Z,45.90
2023-03-16T13:01:20.928Z,46.30
2023-03-16T13:03:51.782Z,46.10
2023-03-16T13:06:23.492Z,46.90
2023-03-16T13:08:56.767Z,46.20
2023-03-16T13:11:27.083Z,46.60
2023-03-16T13:14:11.088Z,47.60
2023-03-16T13:16:40.381Z,47.10
2023-03-16T13:19:27.558Z,47.30
2023-03-16T13:22:19.364Z,47.50
2023-03-16T13:24:53.066Z,48.10
2023-03-16T13:27:29.347Z,48.30
2023-03-16T13:30:00.198Z,47.90
2023-03-16T13:32:32.678Z,48.10
2023-03-16T13:35:02.406Z,48.30
2023-03-16T13:37:31.788Z,48.60
2023-03-16T13:40:01.832Z,48.30
2023-03-16T13:42:32.744Z,48.60
2023-03-16T13:45:12.443Z,48.40
2023-03-16T13:47:44.436Z,48.50
2023-03-16T13:50:14.338Z,48.60
2023-03-16T13:52:44.639Z,48.10
2023-03-16T13:55:17.584Z,48.00
2023-03-16T13:57:47.687Z,47.30
2023-03-16T14:00:20.336Z,47.70
2023-03-16T14:02:52.383Z,47.20
2023-03-16T14:05:23.053Z,47.60
2023-03-16T14:07:53.376Z,47.60
2023-03-16T14:10:24.711Z,47.40
2023-03-16T14:12:55.750Z,47.40
2023-03-16T14:15:27.559Z,47.00
2023-03-16T14:18:12.281Z,47.10
2023-03-16T14:20:42.040Z,46.90
2023-03-16T14:23:20.218Z,47.00
2023-03-16T14:25:49.785Z,46.80
2023-03-16T14:28:22.400Z,47.10
2023-03-16T14:30:55.705Z,47.10
2023-03-16T14:33:28.809Z,47.30
2023-03-16T14:35:59.222Z,48.30
2023-03-16T14:38:33.335Z,47.60
2023-03-16T14:41:05.571Z,47.70
2023-03-16T14:43:38.345Z,47.90
2023-03-16T14:46:08.443Z,48.10
2023-03-16T14:48:37.264Z,48.10
2023-03-16T14:51:06.420Z,48.20
2023-03-16T14:53:34.632Z,48.40
2023-03-16T14:56:03.855Z,48.70
2023-03-16T14:58:32.110Z,48.80
2023-03-16T15:01:01.810Z,48.80
2023-03-16T15:03:34.204Z,48.90
2023-03-16T15:06:03.035Z,49.00
2023-03-16T15:08:33.878Z,49.20
2023-03-16T15:11:05.866Z,49.20
2023-03-16T15:13:52.854Z,49.00
2023-03-16T15:16:23.496Z,49.10
2023-03-16T15:18:52.272Z,48.90
2023-03-16T15:21:24.224Z,48.90
2023-03-16T15:23:52.497Z,48.40
2023-03-16T15:26:27.245Z,48.40
2023-03-16T15:28:56.481Z,48.20
2023-03-16T15:31:26.789Z,48.20
2023-03-16T15:33:55.300Z,48.10
2023-03-16T15:36:25.020Z,47.70
2023-03-16T15:38:55.574Z,47.50
2023-03-16T15:41:26.979Z,47.60
2023-03-16T15:44:00.901Z,47.70
2023-03-16T15:46:30.782Z,48.00
2023-03-16T15:48:59.002Z,47.70
2023-03-16T15:51:29.507Z,47.70
2023-03-16T15:54:00.319Z,47.70
2023-03-16T15:56:32.370Z,47.80
2023-03-16T15:59:03.807Z,47.80
2023-03-16T16:01:37.883Z,47.90
2023-03-16T16:04:09.108Z,47.80
2023-03-16T16:06:37.318Z,48.10
2023-03-16T16:09:05.960Z,48.40
2023-03-16T16:11:34.229Z,48.60
2023-03-16T16:14:02.580Z,48.60
2023-03-16T16:16:34.399Z,48.80
2023-03-16T16:19:02.691Z,48.90
2023-03-16T16:21:32.566Z,48.70
2023-03-16T16:24:02.231Z,48.50
2023-03-16T16:26:54.157Z,48.70
2023-03-16T16:29:24.438Z,48.70
2023-03-16T16:31:54.389Z,48.80
2023-03-16T16:34:24.682Z,48.80
2023-03-16T16:36:53.611Z,49.00
2023-03-16T16:39:23.084Z,49.00
2023-03-16T16:41:54.734Z,49.20
2023-03-16T16:44:27.350Z,49.20
2023-03-16T16:46:57.518Z,49.90
2023-03-16T16:49:28.234Z,49.40
2023-03-16T16:51:56.852Z,49.50
2023-03-16T16:54:27.400Z,49.60
2023-03-16T16:56:57.374Z,49.80
2023-03-16T16:59:27.549Z,50.00
2023-03-16T17:01:57.541Z,50.20
2023-03-16T17:04:27.858Z,50.40
2023-03-16T17:06:58.929Z,50.60
2023-03-16T17:09:28.675Z,50.70
2023-03-16T17:11:59.398Z,50.80
2023-03-16T17:14:28.836Z,50.90
2023-03-16T17:17:00.005Z,51.10
2023-03-16T17:19:29.415Z,51.20
2023-03-16T17:21:59.252Z,51.40
2023-03-16T17:24:28.834Z,51.50
2023-03-16T17:27:00.339Z,51.60
2023-03-16T17:29:31.427Z,51.80
2023-03-16T17:32:02.368Z,52.00
2023-03-16T17:34:33.688Z,52.10
2023-03-16T17:37:03.260Z,52.10
2023-03-16T17:39:35.583Z,52.10
2023-03-16T17:42:07.066Z,52.20
2023-03-16T17:44:37.102Z,52.50
2023-03-16T17:47:15.567Z,52.50
2023-03-16T17:49:44.913Z,52.70
2023-03-16T17:52:18.335Z,52.60
2023-03-16T17:54:49.080Z,52.80
2023-03-16T17:57:19.739Z,52.90
2023-03-16T17:59:48.486Z,53.00
2023-03-16T18:02:41.100Z,53.10
2023-03-16T18:05:18.160Z,53.40
2023-03-16T18:07:46.706Z,53.40
2023-03-16T18:10:16.799Z,53.30
2023-03-16T18:12:45.437Z,53.50
2023-03-16T18:15:18.270Z,53.50
2023-03-16T18:17:49.639Z,53.70
2023-03-16T18:20:30.879Z,53.80
2023-03-16T18:23:00.411Z,53.90
2023-03-16T18:25:33.149Z,53.90
2023-03-16T18:28:02.671Z,54.10
2023-03-16T18:30:32.803Z,54.10
2023-03-16T18:33:03.221Z,54.10
2023-03-16T18:35:32.161Z,54.20
2023-03-16T18:38:01.102Z,54.30
2023-03-16T18:40:29.677Z,54.30
2023-03-16T18:42:58.086Z,54.40
2023-03-16T18:45:27.962Z,54.40
2023-03-16T18:47:58.176Z,54.60
2023-03-16T18:50:30.378Z,54.50
2023-03-16T18:52:59.323Z,54.70
2023-03-16T18:55:28.831Z,54.70
2023-03-16T18:57:58.684Z,54.90
2023-03-16T19:00:29.760Z,55.00
2023-03-16T19:03:03.229Z,55.00
2023-03-16T19:05:36.825Z,55.10
2023-03-16T19:08:06.373Z,55.20
2023-03-16T19:10:37.068Z,55.20
2023-03-16T19:13:05.475Z,55.30
2023-03-16T19:15:35.676Z,55.30
2023-03-16T19:18:04.075Z,55.40
2023-03-16T19:20:34.793Z,55.50
2023-03-16T19:23:06.465Z,55.50
2023-03-16T19:25:38.093Z,55.60
2023-03-16T19:28:07.736Z,55.70
2023-03-16T19:30:37.146Z,55.70
2023-03-16T19:33:12.247Z,55.80
2023-03-16T19:35:51.463Z,55.80
2023-03-16T19:38:20.361Z,55.90
2023-03-16T19:40:50.000Z,55.90
2023-03-16T19:43:19.618Z,56.00
2023-03-16T19:45:49.280Z,56.00
2023-03-16T19:48:20.426Z,56.00
2023-03-16T19:50:51.272Z,56.00
2023-03-16T19:53:22.507Z,56.00
2023-03-16T19:55:53.179Z,56.00
2023-03-16T19:58:30.889Z,56.10
2023-03-16T20:01:01.131Z,56.20
2023-03-16T20:03:29.748Z,56.00
2023-03-16T20:05:59.321Z,56.00
2023-03-16T20:08:29.876Z,56.10
2023-03-16T20:11:03.100Z,56.10
2023-03-16T20:13:31.970Z,56.10
2023-03-16T20:16:00.616Z,56.10
2023-03-16T20:18:30.066Z,56.10
2023-03-16T20:20:59.633Z,56.20
2023-03-16T20:23:30.370Z,56.20
2023-03-16T20:26:02.667Z,56.10
2023-03-16T20:28:35.063Z,56.20
2023-03-16T20:31:03.516Z,56.20
2023-03-16T20:33:33.260Z,56.10
2023-03-16T20:36:02.992Z,56.30
2023-03-16T20:38:31.489Z,56.20
2023-03-16T20:41:01.786Z,56.20
2023-03-16T20:43:31.630Z,56.30
2023-03-16T20:46:02.366Z,56.40
2023-03-16T20:48:30.886Z,56.40
2023-03-16T20:51:00.613Z,56.40
2023-03-16T20:53:30.205Z,56.40
2023-03-16T20:55:58.536Z,56.40
2023-03-16T20:58:28.790Z,56.30
2023-03-16T21:00:58.457Z,56.40
2023-03-16T21:03:28.522Z,56.40
2023-03-16T21:06:00.020Z,56.40
2023-03-16T21:08:29.786Z,56.40
2023-03-16T21:10:59.901Z,56.40
2023-03-16T21:13:31.388Z,56.30
2023-03-16T21:16:01.482Z,57.00
2023-03-16T21:18:30.570Z,56.50
2023-03-16T21:20:58.991Z,56.50
2023-03-16T21:23:27.235Z,56.40
2023-03-16T21:25:59.363Z,56.50
2023-03-16T21:28:30.206Z,56.50
2023-03-16T21:30:59.804Z,56.50
2023-03-16T21:33:31.097Z,56.50
2023-03-16T21:36:00.274Z,56.50
2023-03-16T21:38:30.104Z,56.50
2023-03-16T21:41:00.722Z,56.50
2023-03-16T21:43:29.271Z,56.50
2023-03-16T21:45:59.596Z,57.10
2023-03-16T21:48:39.131Z,56.50
2023-03-16T21:51:16.586Z,56.70
2023-03-16T21:53:45.229Z,56.70
2023-03-16T21:56:17.045Z,56.60
2023-03-16T21:58:45.893Z,56.70
2023-03-16T22:01:23.213Z,56.70
2023-03-16T22:03:53.925Z,56.80
2023-03-16T22:06:22.652Z,56.70
2023-03-16T22:08:51.290Z,56.80
2023-03-16T22:11:23.138Z,56.80
2023-03-16T22:13:52.161Z,56.90
2023-03-16T22:16:23.400Z,56.90
2023-03-16T22:18:53.402Z,56.90
2023-03-16T22:21:30.141Z,57.00
2023-03-16T22:23:59.310Z,57.00
2023-03-16T22:26:30.582Z,57.00
2023-03-16T22:29:00.608Z,56.90
2023-03-16T22:31:33.817Z,56.90
2023-03-16T22:34:03.470Z,57.00
2023-03-16T22:36:33.327Z,57.00
2023-03-16T22:39:03.415Z,57.10
2023-03-16T22:41:33.086Z,57.10
2023-03-16T22:44:01.756Z,57.10
2023-03-16T22:46:30.552Z,57.10
2023-03-16T22:48:59.024Z,57.20
2023-03-16T22:51:31.491Z,57.20
2023-03-16T22:54:02.630Z,57.20
2023-03-16T22:56:34.324Z,57.20
2023-03-16T22:59:05.895Z,57.20
2023-03-16T23:01:38.169Z,57.20
2023-03-16T23:04:15.612Z,57.20
2023-03-16T23:06:44.220Z,57.30
2023-03-16T23:09:14.196Z,57.30
2023-03-16T23:11:45.877Z,57.30
2023-03-16T23:14:16.012Z,57.40
2023-03-16T23:16:45.124Z,57.40
2023-03-16T23:19:25.135Z,57.40
2023-03-16T23:21:55.713Z,57.60
2023-03-16T23:24:24.334Z,57.50
2023-03-16T23:26:55.482Z,57.50
2023-03-16T23:29:24.465Z,57.50
2023-03-16T23:31:53.666Z,57.60
2023-03-16T23:34:24.291Z,57.60
2023-03-16T23:36:53.024Z,57.70
2023-03-16T23:39:21.249Z,57.60
2023-03-16T23:41:50.827Z,57.70
2023-03-16T23:44:23.263Z,57.70
2023-03-16T23:46:52.503Z,57.70
2023-03-16T23:49:23.148Z,57.70
2023-03-16T23:51:52.919Z,57.80
2023-03-16T23:54:23.106Z,57.80
2023-03-16T23:56:51.643Z,57.80
2023-03-16T23:59:21.475Z,57.80
